createdAt,value
2018-02-20T00:02:29.291Z,20.87
2018-02-20T00:08:33.852Z,17.90
2018-02-20T00:14:38.667Z,18.80
2018-02-20T00:20:44.327Z,18.63
2018-02-20T00:26:48.843Z,16.80
2018-02-20T00:32:53.423Z,17.40
2018-02-20T00:38:57.950Z,23.40
2018-02-20T00:45:02.441Z,23.70
2018-02-20T00:51:07.107Z,26.83
2018-02-20T00:57:11.621Z,25.53
2018-02-20T01:03:16.112Z,26.37
2018-02-20T01:09:20.728Z,25.10
2018-02-20T01:15:25.310Z,21.77
2018-02-20T01:21:29.975Z,19.77
2018-02-20T01:27:34.720Z,18.77
2018-02-20T01:33:39.206Z,19.17
2018-02-20T01:39:43.723Z,18.50
2018-02-20T01:45:48.388Z,19.70
2018-02-20T01:51:54.952Z,18.70
2018-02-20T01:58:00.350Z,21.10
2018-02-20T02:04:04.895Z,19.97
2018-02-20T02:10:09.396Z,20.93
2018-02-20T02:16:14.646Z,19.43
2018-02-20T02:22:19.345Z,21.37
2018-02-20T02:28:24.275Z,21.50
2018-02-20T02:34:28.822Z,23.47
2018-02-20T02:40:33.412Z,19.80
2018-02-20T02:46:38.697Z,20.53
2018-02-20T02:52:43.329Z,20.07
2018-02-20T02:58:47.844Z,20.33
2018-02-20T03:04:52.465Z,19.73
2018-02-20T03:10:56.989Z,18.60
2018-02-20T03:17:01.525Z,19.27
2018-02-20T03:23:06.002Z,19.57
2018-02-20T03:29:10.543Z,19.33
2018-02-20T03:35:15.029Z,20.80
2018-02-20T03:41:19.911Z,21.10
2018-02-20T03:47:25.301Z,20.37
2018-02-20T03:53:29.803Z,19.80
2018-02-20T03:59:35.365Z,19.90
2018-02-20T04:05:40.799Z,19.40
2018-02-20T04:11:45.310Z,22.30
2018-02-20T04:17:50.280Z,25.30
2018-02-20T04:23:55.110Z,23.70
2018-02-20T04:29:59.728Z,22.47
2018-02-20T04:36:04.226Z,24.50
2018-02-20T04:42:09.531Z,23.70
2018-02-20T04:48:14.203Z,21.70
2018-02-20T04:54:19.211Z,23.27
2018-02-20T05:00:23.815Z,23.77
2018-02-20T05:06:28.327Z,24.00
2018-02-20T05:12:32.941Z,27.20
2018-02-20T05:18:37.527Z,24.23
2018-02-20T05:24:42.014Z,25.43
2018-02-20T05:30:46.571Z,24.33
2018-02-20T05:36:51.057Z,24.87
2018-02-20T05:42:55.573Z,25.97
2018-02-20T05:49:00.207Z,24.90
2018-02-20T05:55:05.124Z,25.00
2018-02-20T06:01:09.665Z,26.77
2018-02-20T06:07:14.450Z,26.77
2018-02-20T06:13:19.341Z,26.23
2018-02-20T06:19:24.273Z,23.83
2018-02-20T06:25:28.820Z,26.60
2018-02-20T06:31:33.504Z,23.33
2018-02-20T06:37:38.118Z,26.80
2018-02-20T06:43:42.812Z,25.40
2018-02-20T06:49:47.499Z,24.90
2018-02-20T06:55:53.548Z,28.23
2018-02-20T07:01:58.443Z,29.37
2018-02-20T07:08:02.923Z,27.57
2018-02-20T07:14:07.418Z,28.27
2018-02-20T07:20:12.070Z,27.80
2018-02-20T07:26:16.689Z,28.47
2018-02-20T07:32:21.199Z,28.80
2018-02-20T07:38:26.722Z,27.97
2018-02-20T07:44:32.163Z,26.00
2018-02-20T07:50:36.727Z,30.30
2018-02-20T07:56:41.218Z,28.30
2018-02-20T08:02:45.746Z,25.67
2018-02-20T08:08:51.156Z,29.70
2018-02-20T08:14:56.425Z,29.10
2018-02-20T08:21:00.919Z,26.57
2018-02-20T08:27:06.158Z,26.50
2018-02-20T08:33:10.709Z,38.10
2018-02-20T08:39:15.480Z,37.07
2018-02-20T08:45:21.542Z,38.37
2018-02-20T08:51:26.084Z,35.00
2018-02-20T08:57:30.590Z,32.67
2018-02-20T09:03:35.051Z,32.13
2018-02-20T09:09:40.316Z,30.23
2018-02-20T09:15:44.869Z,29.93
2018-02-20T09:21:49.404Z,34.07
2018-02-20T09:27:54.190Z,33.40
2018-02-20T09:33:58.647Z,31.17
2018-02-20T09:40:03.878Z,34.70
2018-02-20T09:46:08.362Z,36.27
2018-02-20T09:52:13.757Z,32.77
2018-02-20T09:58:18.253Z,31.57
2018-02-20T10:04:24.315Z,32.70
2018-02-20T10:10:28.780Z,31.27
2018-02-20T10:16:34.332Z,31.67
2018-02-20T10:22:38.833Z,28.77
2018-02-20T10:28:43.422Z,26.13
2018-02-20T10:34:48.048Z,25.93
2018-02-20T10:40:52.748Z,28.23
2018-02-20T10:46:57.291Z,29.60
2018-02-20T10:53:01.777Z,26.37
2018-02-20T10:59:07.015Z,26.33
2018-02-20T11:05:11.534Z,27.90
2018-02-20T11:11:16.833Z,33.00
2018-02-20T11:17:22.613Z,33.50
2018-02-20T11:23:27.091Z,32.13
2018-02-20T11:29:31.586Z,37.43
2018-02-20T11:35:36.325Z,24.93
2018-02-20T11:41:40.930Z,31.90
2018-02-20T11:47:45.470Z,37.80
2018-02-20T11:53:50.393Z,33.43
2018-02-20T11:59:55.318Z,27.47
2018-02-20T12:05:59.957Z,31.30
2018-02-20T12:12:04.414Z,30.60
2018-02-20T12:18:09.051Z,22.30
2018-02-20T12:24:14.360Z,22.40
2018-02-20T12:30:19.132Z,22.90
2018-02-20T12:36:24.083Z,25.63
2018-02-20T12:42:28.621Z,19.80
2018-02-20T12:48:33.124Z,22.13
2018-02-20T12:54:37.685Z,25.00
2018-02-20T13:00:42.446Z,26.30
2018-02-20T13:06:47.013Z,23.13
2018-02-20T13:12:51.676Z,27.87
2018-02-20T13:18:56.300Z,27.27
2018-02-20T13:25:00.819Z,29.90
2018-02-20T13:31:05.357Z,32.47
2018-02-20T13:37:09.821Z,37.70
2018-02-20T13:43:14.352Z,37.57
2018-02-20T13:49:18.970Z,33.40
2018-02-20T13:55:24.241Z,40.67
2018-02-20T14:01:28.690Z,39.80
2018-02-20T14:07:33.248Z,37.60
2018-02-20T14:13:37.753Z,35.93
2018-02-20T14:19:42.233Z,45.30
2018-02-20T14:25:46.855Z,43.40
2018-02-20T14:31:51.511Z,63.43
2018-02-20T14:37:56.155Z,39.67
2018-02-20T14:44:00.679Z,71.33
2018-02-20T14:50:05.580Z,40.17
2018-02-20T14:56:10.988Z,41.17
2018-02-20T15:02:15.479Z,42.40
2018-02-20T15:08:20.121Z,41.27
2018-02-20T15:14:24.652Z,43.57
2018-02-20T15:20:29.959Z,40.90
2018-02-20T15:26:34.467Z,43.60
2018-02-20T15:32:39.085Z,52.83
2018-02-20T15:38:43.706Z,42.90
2018-02-20T15:44:48.416Z,43.53
2018-02-20T15:50:53.878Z,41.97
2018-02-20T15:56:58.346Z,42.77
2018-02-20T16:03:02.863Z,41.90
2018-02-20T16:09:07.818Z,39.70
2018-02-20T16:15:12.361Z,41.40
2018-02-20T16:21:17.821Z,38.83
2018-02-20T16:27:23.633Z,39.53
2018-02-20T16:33:28.237Z,34.27
2018-02-20T16:39:33.467Z,39.70
2018-02-20T16:45:38.046Z,38.00
2018-02-20T16:51:42.629Z,37.17
2018-02-20T16:57:47.173Z,37.80
2018-02-20T17:03:51.844Z,37.40
2018-02-20T17:09:56.405Z,33.17
2018-02-20T17:16:01.025Z,35.17
2018-02-20T17:22:05.563Z,34.00
2018-02-20T17:28:10.073Z,36.60
2018-02-20T17:34:14.629Z,36.50
2018-02-20T17:40:19.633Z,36.43
2018-02-20T17:46:24.252Z,37.60
2018-02-20T17:52:28.851Z,34.60
2018-02-20T17:58:33.351Z,35.80
2018-02-20T18:04:37.847Z,36.40
2018-02-20T18:10:42.468Z,37.03
2018-02-20T18:16:46.993Z,32.53
2018-02-20T18:22:52.305Z,35.63
2018-02-20T18:28:57.587Z,34.30
2018-02-20T18:35:02.209Z,34.00
2018-02-20T18:41:06.953Z,35.70
2018-02-20T18:47:11.527Z,34.77
2018-02-20T18:53:16.193Z,35.63
2018-02-20T18:59:21.367Z,34.90
2018-02-20T19:05:26.048Z,36.23
2018-02-20T19:11:30.618Z,38.20
2018-02-20T19:17:36.798Z,38.60
2018-02-20T19:23:42.977Z,42.20
2018-02-20T19:29:47.459Z,57.87
2018-02-20T19:35:52.684Z,50.17
2018-02-20T19:41:58.019Z,52.07
2018-02-20T19:48:02.501Z,45.20
2018-02-20T19:54:07.120Z,45.00
2018-02-20T20:00:11.565Z,45.37
2018-02-20T20:06:16.338Z,49.00
2018-02-20T20:12:22.430Z,44.87
2018-02-20T20:18:26.993Z,48.53
2018-02-20T20:24:31.644Z,49.23
2018-02-20T20:30:36.379Z,47.43
2018-02-20T20:36:40.989Z,51.30
2018-02-20T20:42:45.623Z,49.90
2018-02-20T20:48:52.162Z,49.00
2018-02-20T20:54:56.683Z,50.67
2018-02-20T21:01:01.355Z,51.13
2018-02-20T21:07:06.036Z,49.23
2018-02-20T21:13:10.566Z,49.70
2018-02-20T21:19:15.857Z,52.07
2018-02-20T21:25:21.039Z,50.30
2018-02-20T21:31:26.502Z,53.60
2018-02-20T21:37:31.052Z,53.23
2018-02-20T21:43:35.659Z,51.40
2018-02-20T21:49:40.425Z,50.67
2018-02-20T21:55:44.957Z,49.07
2018-02-20T22:01:49.527Z,49.13
2018-02-20T22:07:54.604Z,51.30
2018-02-20T22:13:59.355Z,46.87
2018-02-20T22:20:03.868Z,46.30
2018-02-20T22:26:08.538Z,49.97
2018-02-20T22:32:13.253Z,52.00
2018-02-20T22:38:17.787Z,52.37
2018-02-20T22:44:22.350Z,54.67
2018-02-20T22:50:26.880Z,55.60
2018-02-20T22:56:31.443Z,54.00
2018-02-20T23:02:35.974Z,53.53
2018-02-20T23:08:41.228Z,55.30
2018-02-20T23:14:45.726Z,56.00
2018-02-20T23:20:50.374Z,54.70
2018-02-20T23:26:55.190Z,55.43
2018-02-20T23:32:59.691Z,57.77
2018-02-20T23:39:05.067Z,59.10
2018-02-20T23:45:09.550Z,58.13
2018-02-20T23:51:20.160Z,53.50
2018-02-20T23:57:25.690Z,57.67
